<?xml version='1.0' encoding='UTF-8'?><gpx version="1.1" creator="JPX - https://github.com/jenetics/jpx" xmlns="http://www.topografix.com/GPX/1/1"><trk><trkseg><trkpt lat="43.48284" lon="12.01748"><ele>688.0</ele><time>2026-04-19T11:36:02.233Z</time></trkpt><trkpt lat="43.4828417" lon="12.0173617"><ele>688.0</ele><time>2026-04-19T11:36:04.233Z</time></trkpt><trkpt lat="43.48277" lon="12.0172433"><ele>688.0</ele><time>2026-04-19T11:36:06.234Z</time></trkpt><trkpt lat="43.4826467" lon="12.0171583"><ele>688.0</ele><time>2026-04-19T11:36:08.234Z</time></trkpt><trkpt lat="43.48256" lon="12.0171183"><ele>688.0</ele><time>2026-04-19T11:36:09.235Z</time></trkpt><trkpt lat="43.4824533" lon="12.017065"><ele>688.0</ele><time>2026-04-19T11:36:10.233Z</time></trkpt><trkpt lat="43.4823883" lon="12.017"><ele>688.0</ele><time>2026-04-19T11:36:11.233Z</time></trkpt><trkpt lat="43.4822917" lon="12.0169483"><ele>688.0</ele><time>2026-04-19T11:36:12.233Z</time></trkpt><trkpt lat="43.482205" lon="12.0168933"><ele>688.0</ele><time>2026-04-19T11:36:13.234Z</time></trkpt><trkpt lat="43.4821233" lon="12.0168333"><ele>688.0</ele><time>2026-04-19T11:36:14.233Z</time></trkpt><trkpt lat="43.4820467" lon="12.0167733"><ele>686.5999999999999</ele><time>2026-04-19T11:36:15.234Z</time></trkpt><trkpt lat="43.481975" lon="12.01669"><ele>685.1999999999999</ele><time>2026-04-19T11:36:16.234Z</time></trkpt><trkpt lat="43.4819033" lon="12.0165917"><ele>683.8</ele><time>2026-04-19T11:36:17.233Z</time></trkpt><trkpt lat="43.4818367" lon="12.01648"><ele>682.4</ele><time>2026-04-19T11:36:18.233Z</time></trkpt><trkpt lat="43.4817817" lon="12.0163667"><ele>681.0</ele><time>2026-04-19T11:36:19.235Z</time></trkpt><trkpt lat="43.481725" lon="12.0162617"><ele>681.0</ele><time>2026-04-19T11:36:20.238Z</time></trkpt><trkpt lat="43.4816817" lon="12.0161683"><ele>681.0</ele><time>2026-04-19T11:36:21.235Z</time></trkpt><trkpt lat="43.4816617" lon="12.0160633"><ele>681.0</ele><time>2026-04-19T11:36:22.233Z</time></trkpt><trkpt lat="43.4816517" lon="12.0159583"><ele>681.0</ele><time>2026-04-19T11:36:23.235Z</time></trkpt><trkpt lat="43.48164" lon="12.0158517"><ele>681.0</ele><time>2026-04-19T11:36:24.235Z</time></trkpt><trkpt lat="43.48163" lon="12.0157383"><ele>681.0</ele><time>2026-04-19T11:36:25.235Z</time></trkpt><trkpt lat="43.4816033" lon="12.0156433"><ele>680.8333333333334</ele><time>2026-04-19T11:36:26.235Z</time></trkpt><trkpt lat="43.48155" lon="12.0155833"><ele>680.6666666666666</ele><time>2026-04-19T11:36:27.235Z</time></trkpt><trkpt lat="43.4814817" lon="12.01553"><ele>680.5</ele><time>2026-04-19T11:36:28.235Z</time></trkpt><trkpt lat="43.4813967" lon="12.015495"><ele>680.3333333333333</ele><time>2026-04-19T11:36:29.234Z</time></trkpt><trkpt lat="43.4813083" lon="12.0154617"><ele>680.1666666666666</ele><time>2026-04-19T11:36:30.235Z</time></trkpt><trkpt lat="43.4811983" lon="12.0154167"><ele>680.0</ele><time>2026-04-19T11:36:31.234Z</time></trkpt><trkpt lat="43.4811" lon="12.01536"><ele>680.0</ele><time>2026-04-19T11:36:32.235Z</time></trkpt><trkpt lat="43.4810083" lon="12.0153033"><ele>680.0</ele><time>2026-04-19T11:36:33.235Z</time></trkpt><trkpt lat="43.4809283" lon="12.0152517"><ele>680.0</ele><time>2026-04-19T11:36:34.234Z</time></trkpt><trkpt lat="43.480855" lon="12.0151933"><ele>680.0</ele><time>2026-04-19T11:36:35.234Z</time></trkpt><trkpt lat="43.4808117" lon="12.01512"><ele>680.0</ele><time>2026-04-19T11:36:36.233Z</time></trkpt><trkpt lat="43.48077" lon="12.0150333"><ele>680.0</ele><time>2026-04-19T11:36:37.233Z</time></trkpt><trkpt lat="43.480725" lon="12.0149283"><ele>681.1666666666666</ele><time>2026-04-19T11:36:38.233Z</time></trkpt><trkpt lat="43.4806833" lon="12.0148083"><ele>682.3333333333333</ele><time>2026-04-19T11:36:39.234Z</time></trkpt><trkpt lat="43.4806517" lon="12.0146917"><ele>683.5</ele><time>2026-04-19T11:36:40.234Z</time></trkpt><trkpt lat="43.480625" lon="12.0145817"><ele>684.6666666666666</ele><time>2026-04-19T11:36:41.235Z</time></trkpt><trkpt lat="43.4806083" lon="12.0144683"><ele>685.8333333333334</ele><time>2026-04-19T11:36:42.235Z</time></trkpt><trkpt lat="43.48061" lon="12.01435"><ele>687.0</ele><time>2026-04-19T11:36:43.236Z</time></trkpt><trkpt lat="43.4806233" lon="12.0142433"><ele>688.1666666666666</ele><time>2026-04-19T11:36:44.235Z</time></trkpt><trkpt lat="43.4806433" lon="12.014135"><ele>689.3333333333334</ele><time>2026-04-19T11:36:45.232Z</time></trkpt><trkpt lat="43.480675" lon="12.01403"><ele>690.5</ele><time>2026-04-19T11:36:46.233Z</time></trkpt><trkpt lat="43.4807033" lon="12.013925"><ele>691.6666666666667</ele><time>2026-04-19T11:36:47.235Z</time></trkpt><trkpt lat="43.4807117" lon="12.0138133"><ele>692.8333333333334</ele><time>2026-04-19T11:36:48.234Z</time></trkpt><trkpt lat="43.4806983" lon="12.013695"><ele>694.0</ele><time>2026-04-19T11:36:49.235Z</time></trkpt><trkpt lat="43.4806667" lon="12.01356"><ele>694.0</ele><time>2026-04-19T11:36:50.234Z</time></trkpt><trkpt lat="43.4806217" lon="12.0134183"><ele>694.0</ele><time>2026-04-19T11:36:51.234Z</time></trkpt><trkpt lat="43.4805867" lon="12.0132783"><ele>694.0</ele><time>2026-04-19T11:36:52.236Z</time></trkpt><trkpt lat="43.48052" lon="12.0131467"><ele>694.0</ele><time>2026-04-19T11:36:53.234Z</time></trkpt><trkpt lat="43.4804383" lon="12.0130383"><ele>691.6</ele><time>2026-04-19T11:36:54.237Z</time></trkpt><trkpt lat="43.4803517" lon="12.0129467"><ele>689.2</ele><time>2026-04-19T11:36:55.235Z</time></trkpt><trkpt lat="43.4802667" lon="12.0128617"><ele>686.8000000000001</ele><time>2026-04-19T11:36:56.235Z</time></trkpt><trkpt lat="43.4801633" lon="12.0128"><ele>684.4000000000001</ele><time>2026-04-19T11:36:57.233Z</time></trkpt><trkpt lat="43.48006" lon="12.0127533"><ele>682.0</ele><time>2026-04-19T11:36:58.234Z</time></trkpt><trkpt lat="43.47997" lon="12.0127183"><ele>682.0</ele><time>2026-04-19T11:36:59.239Z</time></trkpt><trkpt lat="43.4798767" lon="12.0126817"><ele>682.0</ele><time>2026-04-19T11:37:00.233Z</time></trkpt><trkpt lat="43.4797883" lon="12.0126533"><ele>682.0</ele><time>2026-04-19T11:37:01.233Z</time></trkpt><trkpt lat="43.4796983" lon="12.0126133"><ele>682.0</ele><time>2026-04-19T11:37:02.233Z</time></trkpt><trkpt lat="43.479625" lon="12.012565"><ele>682.0</ele><time>2026-04-19T11:37:03.233Z</time></trkpt><trkpt lat="43.479565" lon="12.0125067"><ele>682.0</ele><time>2026-04-19T11:37:04.233Z</time></trkpt><trkpt lat="43.4795683" lon="12.0123517"><ele>679.2</ele><time>2026-04-19T11:37:06.233Z</time></trkpt><trkpt lat="43.479595" lon="12.0122717"><ele>676.4000000000001</ele><time>2026-04-19T11:37:07.234Z</time></trkpt><trkpt lat="43.4796533" lon="12.012195"><ele>673.5999999999999</ele><time>2026-04-19T11:37:08.234Z</time></trkpt><trkpt lat="43.4797367" lon="12.012125"><ele>670.8</ele><time>2026-04-19T11:37:09.234Z</time></trkpt><trkpt lat="43.4798517" lon="12.0120633"><ele>668.0</ele><time>2026-04-19T11:37:10.233Z</time></trkpt><trkpt lat="43.479975" lon="12.012005"><ele>668.0</ele><time>2026-04-19T11:37:11.234Z</time></trkpt><trkpt lat="43.4800783" lon="12.0119283"><ele>668.0</ele><time>2026-04-19T11:37:12.235Z</time></trkpt><trkpt lat="43.480165" lon="12.0118367"><ele>668.0</ele><time>2026-04-19T11:37:13.233Z</time></trkpt><trkpt lat="43.4802383" lon="12.0117333"><ele>668.0</ele><time>2026-04-19T11:37:14.233Z</time></trkpt><trkpt lat="43.4803" lon="12.0116317"><ele>668.0</ele><time>2026-04-19T11:37:15.233Z</time></trkpt><trkpt lat="43.4803667" lon="12.01156"><ele>674.3333333333333</ele><time>2026-04-19T11:37:16.232Z</time></trkpt><trkpt lat="43.4804333" lon="12.011505"><ele>680.6666666666666</ele><time>2026-04-19T11:37:17.233Z</time></trkpt><trkpt lat="43.480495" lon="12.0114433"><ele>687.0</ele><time>2026-04-19T11:37:18.233Z</time></trkpt><trkpt lat="43.4805517" lon="12.0113783"><ele>693.3333333333334</ele><time>2026-04-19T11:37:19.234Z</time></trkpt><trkpt lat="43.4805883" lon="12.0112233"><ele>699.6666666666667</ele><time>2026-04-19T11:37:21.233Z</time></trkpt><trkpt lat="43.4805417" lon="12.0111233"><ele>706.0</ele><time>2026-04-19T11:37:22.234Z</time></trkpt><trkpt lat="43.4804867" lon="12.0110283"><ele>700.0</ele><time>2026-04-19T11:37:23.234Z</time></trkpt><trkpt lat="43.4803633" lon="12.01091"><ele>694.0</ele><time>2026-04-19T11:37:24.235Z</time></trkpt><trkpt lat="43.4802283" lon="12.0107917"><ele>688.0</ele><time>2026-04-19T11:37:25.233Z</time></trkpt><trkpt lat="43.480095" lon="12.0106783"><ele>688.0</ele><time>2026-04-19T11:37:26.234Z</time></trkpt><trkpt lat="43.4799883" lon="12.0105683"><ele>688.0</ele><time>2026-04-19T11:37:27.233Z</time></trkpt><trkpt lat="43.4799067" lon="12.0104433"><ele>688.0</ele><time>2026-04-19T11:37:28.233Z</time></trkpt><trkpt lat="43.479835" lon="12.01032"><ele>688.0</ele><time>2026-04-19T11:37:29.234Z</time></trkpt><trkpt lat="43.4797683" lon="12.0102"><ele>688.0</ele><time>2026-04-19T11:37:30.234Z</time></trkpt><trkpt lat="43.479705" lon="12.0100867"><ele>688.0</ele><time>2026-04-19T11:37:31.233Z</time></trkpt><trkpt lat="43.4796433" lon="12.0099817"><ele>688.0</ele><time>2026-04-19T11:37:32.233Z</time></trkpt><trkpt lat="43.4795967" lon="12.00989"><ele>688.0</ele><time>2026-04-19T11:37:33.234Z</time></trkpt><trkpt lat="43.4795517" lon="12.0098183"><ele>688.0</ele><time>2026-04-19T11:37:34.233Z</time></trkpt><trkpt lat="43.4794583" lon="12.0097333"><ele>686.2</ele><time>2026-04-19T11:37:36.234Z</time></trkpt><trkpt lat="43.4793633" lon="12.009695"><ele>684.4</ele><time>2026-04-19T11:37:38.234Z</time></trkpt><trkpt lat="43.4792683" lon="12.0096667"><ele>682.6</ele><time>2026-04-19T11:37:40.234Z</time></trkpt><trkpt lat="43.47917" lon="12.0095667"><ele>680.8000000000001</ele><time>2026-04-19T11:37:42.235Z</time></trkpt><trkpt lat="43.4791317" lon="12.0094433"><ele>679.0</ele><time>2026-04-19T11:37:44.234Z</time></trkpt><trkpt lat="43.4792083" lon="12.0093267"><ele>679.0</ele><time>2026-04-19T11:37:46.233Z</time></trkpt><trkpt lat="43.4792583" lon="12.0092633"><ele>679.0</ele><time>2026-04-19T11:37:47.234Z</time></trkpt><trkpt lat="43.47931" lon="12.0091733"><ele>679.0</ele><time>2026-04-19T11:37:48.233Z</time></trkpt><trkpt lat="43.4793533" lon="12.009065"><ele>679.0</ele><time>2026-04-19T11:37:49.233Z</time></trkpt><trkpt lat="43.4793933" lon="12.00894"><ele>679.0</ele><time>2026-04-19T11:37:50.233Z</time></trkpt><trkpt lat="43.4794367" lon="12.008815"><ele>679.0</ele><time>2026-04-19T11:37:51.234Z</time></trkpt><trkpt lat="43.4794683" lon="12.0087033"><ele>679.5</ele><time>2026-04-19T11:37:52.236Z</time></trkpt><trkpt lat="43.47949" lon="12.0085867"><ele>680.0</ele><time>2026-04-19T11:37:53.234Z</time></trkpt><trkpt lat="43.4794817" lon="12.0084717"><ele>680.5</ele><time>2026-04-19T11:37:54.234Z</time></trkpt><trkpt lat="43.4794517" lon="12.0083717"><ele>681.0</ele><time>2026-04-19T11:37:55.238Z</time></trkpt><trkpt lat="43.4794033" lon="12.0083033"><ele>681.5</ele><time>2026-04-19T11:37:56.233Z</time></trkpt><trkpt lat="43.47936" lon="12.00823"><ele>682.0</ele><time>2026-04-19T11:37:57.233Z</time></trkpt><trkpt lat="43.4793283" lon="12.008145"><ele>682.3333333333334</ele><time>2026-04-19T11:37:58.234Z</time></trkpt><trkpt lat="43.4793183" lon="12.0080467"><ele>682.6666666666667</ele><time>2026-04-19T11:37:59.234Z</time></trkpt><trkpt lat="43.4793317" lon="12.0079367"><ele>683.0</ele><time>2026-04-19T11:38:00.234Z</time></trkpt><trkpt lat="43.479365" lon="12.0078183"><ele>683.3333333333334</ele><time>2026-04-19T11:38:01.233Z</time></trkpt><trkpt lat="43.47941" lon="12.0077"><ele>683.6666666666666</ele><time>2026-04-19T11:38:02.234Z</time></trkpt><trkpt lat="43.4794533" lon="12.0075833"><ele>684.0</ele><time>2026-04-19T11:38:03.233Z</time></trkpt><trkpt lat="43.4794983" lon="12.0074633"><ele>684.8333333333334</ele><time>2026-04-19T11:38:04.233Z</time></trkpt><trkpt lat="43.4795417" lon="12.0073517"><ele>685.6666666666666</ele><time>2026-04-19T11:38:05.234Z</time></trkpt><trkpt lat="43.47958" lon="12.0072517"><ele>686.5</ele><time>2026-04-19T11:38:06.234Z</time></trkpt><trkpt lat="43.479605" lon="12.0071583"><ele>687.3333333333333</ele><time>2026-04-19T11:38:07.233Z</time></trkpt><trkpt lat="43.479615" lon="12.0070667"><ele>688.1666666666666</ele><time>2026-04-19T11:38:08.235Z</time></trkpt><trkpt lat="43.4796167" lon="12.0069783"><ele>689.0</ele><time>2026-04-19T11:38:09.234Z</time></trkpt><trkpt lat="43.47961" lon="12.0067933"><ele>692.8000000000001</ele><time>2026-04-19T11:38:11.233Z</time></trkpt><trkpt lat="43.4796083" lon="12.00668"><ele>696.6</ele><time>2026-04-19T11:38:12.235Z</time></trkpt><trkpt lat="43.4796033" lon="12.0065583"><ele>700.4</ele><time>2026-04-19T11:38:13.235Z</time></trkpt><trkpt lat="43.479595" lon="12.006435"><ele>704.2</ele><time>2026-04-19T11:38:14.233Z</time></trkpt><trkpt lat="43.4795767" lon="12.0062967"><ele>708.0</ele><time>2026-04-19T11:38:15.233Z</time></trkpt><trkpt lat="43.479555" lon="12.00616"><ele>708.0</ele><time>2026-04-19T11:38:16.233Z</time></trkpt><trkpt lat="43.47951" lon="12.0060217"><ele>708.0</ele><time>2026-04-19T11:38:17.234Z</time></trkpt><trkpt lat="43.4794433" lon="12.0058933"><ele>708.0</ele><time>2026-04-19T11:38:18.234Z</time></trkpt><trkpt lat="43.47938" lon="12.005785"><ele>708.0</ele><time>2026-04-19T11:38:19.235Z</time></trkpt><trkpt lat="43.4793217" lon="12.00569"><ele>708.0</ele><time>2026-04-19T11:38:20.233Z</time></trkpt><trkpt lat="43.4792783" lon="12.0055933"><ele>712.2</ele><time>2026-04-19T11:38:21.233Z</time></trkpt><trkpt lat="43.4792467" lon="12.0054883"><ele>716.4</ele><time>2026-04-19T11:38:22.233Z</time></trkpt><trkpt lat="43.4792217" lon="12.0053683"><ele>720.6</ele><time>2026-04-19T11:38:23.233Z</time></trkpt><trkpt lat="43.479195" lon="12.0052367"><ele>724.8000000000001</ele><time>2026-04-19T11:38:24.233Z</time></trkpt><trkpt lat="43.4791533" lon="12.0051167"><ele>729.0</ele><time>2026-04-19T11:38:25.233Z</time></trkpt><trkpt lat="43.4790983" lon="12.005015"><ele>731.4000000000001</ele><time>2026-04-19T11:38:26.234Z</time></trkpt><trkpt lat="43.479035" lon="12.0049333"><ele>733.8</ele><time>2026-04-19T11:38:27.234Z</time></trkpt><trkpt lat="43.4789533" lon="12.0048633"><ele>736.2</ele><time>2026-04-19T11:38:28.233Z</time></trkpt><trkpt lat="43.47888" lon="12.004795"><ele>738.5999999999999</ele><time>2026-04-19T11:38:29.233Z</time></trkpt><trkpt lat="43.4788167" lon="12.004735"><ele>741.0</ele><time>2026-04-19T11:38:30.235Z</time></trkpt><trkpt lat="43.4787267" lon="12.0046517"><ele>741.0</ele><time>2026-04-19T11:38:32.234Z</time></trkpt><trkpt lat="43.4786733" lon="12.0046017"><ele>741.0</ele><time>2026-04-19T11:38:35.235Z</time></trkpt><trkpt lat="43.478745" lon="12.0046433"><ele>741.0</ele><time>2026-04-19T11:38:43.233Z</time></trkpt><trkpt lat="43.47884" lon="12.0046867"><ele>741.0</ele><time>2026-04-19T11:38:57.233Z</time></trkpt><trkpt lat="43.4789183" lon="12.0046917"><ele>741.0</ele><time>2026-04-19T11:38:59.233Z</time></trkpt><trkpt lat="43.479015" lon="12.004715"><ele>741.0</ele><time>2026-04-19T11:39:01.233Z</time></trkpt><trkpt lat="43.4791333" lon="12.0047033"><ele>743.4</ele><time>2026-04-19T11:39:03.234Z</time></trkpt><trkpt lat="43.479245" lon="12.0046583"><ele>745.8</ele><time>2026-04-19T11:39:05.236Z</time></trkpt><trkpt lat="43.4793683" lon="12.0046467"><ele>748.1999999999999</ele><time>2026-04-19T11:39:07.233Z</time></trkpt><trkpt lat="43.4794833" lon="12.0047133"><ele>750.5999999999999</ele><time>2026-04-19T11:39:09.235Z</time></trkpt><trkpt lat="43.47953" lon="12.0047917"><ele>753.0</ele><time>2026-04-19T11:39:10.234Z</time></trkpt><trkpt lat="43.4795783" lon="12.0048617"><ele>751.8571428571429</ele><time>2026-04-19T11:39:11.233Z</time></trkpt><trkpt lat="43.4796417" lon="12.0048967"><ele>750.7142857142858</ele><time>2026-04-19T11:39:12.234Z</time></trkpt><trkpt lat="43.4797033" lon="12.004915"><ele>749.5714285714286</ele><time>2026-04-19T11:39:13.234Z</time></trkpt><trkpt lat="43.4797917" lon="12.0049067"><ele>748.4285714285714</ele><time>2026-04-19T11:39:15.234Z</time></trkpt><trkpt lat="43.4798469" lon="12.0048628"><ele>747.2857142857142</ele><time>2026-04-19T11:39:17.234Z</time></trkpt><trkpt lat="43.4798809" lon="12.004778"><ele>746.1428571428571</ele><time>2026-04-19T11:39:19.233Z</time></trkpt><trkpt lat="43.4798848" lon="12.0046861"><ele>745.0</ele><time>2026-04-19T11:39:21.234Z</time></trkpt><trkpt lat="43.4798489" lon="12.0045517"><ele>745.0</ele><time>2026-04-19T11:39:25.172Z</time></trkpt><trkpt lat="43.479793" lon="12.0044316"><ele>745.0</ele><time>2026-04-19T11:39:27.331Z</time></trkpt><trkpt lat="43.4797378" lon="12.004335"><ele>745.0</ele><time>2026-04-19T11:39:29.333Z</time></trkpt><trkpt lat="43.4796983" lon="12.0042152"><ele>745.0</ele><time>2026-04-19T11:39:31.308Z</time></trkpt><trkpt lat="43.4796766" lon="12.0040893"><ele>745.0</ele><time>2026-04-19T11:39:32.236Z</time></trkpt><trkpt lat="43.4796498" lon="12.0039948"><ele>745.6</ele><time>2026-04-19T11:39:33.337Z</time></trkpt><trkpt lat="43.4796674" lon="12.0038925"><ele>746.2</ele><time>2026-04-19T11:39:35.339Z</time></trkpt><trkpt lat="43.4796625" lon="12.0037572"><ele>746.8</ele><time>2026-04-19T11:39:38.242Z</time></trkpt><trkpt lat="43.4796863" lon="12.0036309"><ele>747.4</ele><time>2026-04-19T11:39:40.328Z</time></trkpt><trkpt lat="43.4796703" lon="12.0034974"><ele>748.0</ele><time>2026-04-19T11:39:42.347Z</time></trkpt><trkpt lat="43.479639" lon="12.003375"><ele>747.0</ele><time>2026-04-19T11:39:44.249Z</time></trkpt><trkpt lat="43.4796082" lon="12.0032803"><ele>746.0</ele><time>2026-04-19T11:39:46.252Z</time></trkpt><trkpt lat="43.4795849" lon="12.0031811"><ele>745.0</ele><time>2026-04-19T11:39:48.253Z</time></trkpt><trkpt lat="43.4795217" lon="12.003135"><ele>744.0</ele><time>2026-04-19T11:39:50.236Z</time></trkpt><trkpt lat="43.479455" lon="12.0030583"><ele>743.0</ele><time>2026-04-19T11:39:52.236Z</time></trkpt><trkpt lat="43.479385" lon="12.0029817"><ele>742.0</ele><time>2026-04-19T11:39:54.235Z</time></trkpt><trkpt lat="43.4792967" lon="12.0029217"><ele>750.2</ele><time>2026-04-19T11:39:56.235Z</time></trkpt><trkpt lat="43.4792" lon="12.0028633"><ele>758.4000000000001</ele><time>2026-04-19T11:39:58.234Z</time></trkpt><trkpt lat="43.4791182" lon="12.0028066"><ele>766.5999999999999</ele><time>2026-04-19T11:40:00.233Z</time></trkpt><trkpt lat="43.4790347" lon="12.0026941"><ele>774.8</ele><time>2026-04-19T11:40:02.235Z</time></trkpt><trkpt lat="43.4789783" lon="12.0025444"><ele>783.0</ele><time>2026-04-19T11:40:04.234Z</time></trkpt><trkpt lat="43.4789617" lon="12.0024588"><ele>785.1666666666666</ele><time>2026-04-19T11:40:05.234Z</time></trkpt><trkpt lat="43.4789612" lon="12.002302"><ele>787.3333333333333</ele><time>2026-04-19T11:40:07.234Z</time></trkpt><trkpt lat="43.478965" lon="12.0021767"><ele>789.5</ele><time>2026-04-19T11:40:09.233Z</time></trkpt><trkpt lat="43.4789764" lon="12.0020856"><ele>791.6666666666666</ele><time>2026-04-19T11:40:11.234Z</time></trkpt><trkpt lat="43.4789635" lon="12.0019723"><ele>793.8333333333333</ele><time>2026-04-19T11:40:21.235Z</time></trkpt><trkpt lat="43.4789366" lon="12.0018843"><ele>796.0</ele><time>2026-04-19T11:40:24.235Z</time></trkpt><trkpt lat="43.4788764" lon="12.001803"><ele>795.9999999999999</ele><time>2026-04-19T11:40:39.233Z</time></trkpt><trkpt lat="43.4788849" lon="12.0017108"><ele>796.0</ele><time>2026-04-19T11:40:43.233Z</time></trkpt><trkpt lat="43.4789331" lon="12.0016201"><ele>796.0</ele><time>2026-04-19T11:41:02.235Z</time></trkpt><trkpt lat="43.4789828" lon="12.0015665"><ele>796.0</ele><time>2026-04-19T11:41:04.235Z</time></trkpt><trkpt lat="43.4790296" lon="12.0014814"><ele>795.9999999999999</ele><time>2026-04-19T11:41:06.237Z</time></trkpt><trkpt lat="43.4790835" lon="12.0013639"><ele>796.0</ele><time>2026-04-19T11:41:08.235Z</time></trkpt><trkpt lat="43.479143" lon="12.0012465"><ele>796.6666666666666</ele><time>2026-04-19T11:41:10.235Z</time></trkpt><trkpt lat="43.4791649" lon="12.0011312"><ele>797.3333333333333</ele><time>2026-04-19T11:41:12.235Z</time></trkpt><trkpt lat="43.4791676" lon="12.0010182"><ele>798.0</ele><time>2026-04-19T11:41:14.235Z</time></trkpt><trkpt lat="43.4791517" lon="12.0009019"><ele>798.6666666666667</ele><time>2026-04-19T11:41:16.235Z</time></trkpt><trkpt lat="43.4791297" lon="12.000777"><ele>799.3333333333334</ele><time>2026-04-19T11:41:18.235Z</time></trkpt><trkpt lat="43.479077" lon="12.0006594"><ele>800.0</ele><time>2026-04-19T11:41:20.237Z</time></trkpt><trkpt lat="43.4790169" lon="12.0005387"><ele>800.0</ele><time>2026-04-19T11:41:22.234Z</time></trkpt><trkpt lat="43.4789486" lon="12.0004088"><ele>800.0</ele><time>2026-04-19T11:41:24.237Z</time></trkpt><trkpt lat="43.4788694" lon="12.0003268"><ele>800.0</ele><time>2026-04-19T11:41:26.236Z</time></trkpt><trkpt lat="43.4787581" lon="12.0003035"><ele>800.0</ele><time>2026-04-19T11:41:28.236Z</time></trkpt><trkpt lat="43.4786878" lon="12.000311"><ele>800.0</ele><time>2026-04-19T11:41:29.233Z</time></trkpt><trkpt lat="43.4786204" lon="12.0003143"><ele>804.0000000000001</ele><time>2026-04-19T11:41:30.234Z</time></trkpt><trkpt lat="43.4785198" lon="12.0002693"><ele>808.0</ele><time>2026-04-19T11:41:32.234Z</time></trkpt><trkpt lat="43.4784391" lon="12.0001608"><ele>812.0</ele><time>2026-04-19T11:41:34.234Z</time></trkpt><trkpt lat="43.4783926" lon="12.0000975"><ele>816.0</ele><time>2026-04-19T11:41:35.234Z</time></trkpt><trkpt lat="43.478341" lon="12.0000447"><ele>820.0000000000001</ele><time>2026-04-19T11:41:36.235Z</time></trkpt><trkpt lat="43.478284" lon="12.0000026"><ele>824.0</ele><time>2026-04-19T11:41:37.234Z</time></trkpt><trkpt lat="43.4782096" lon="11.9999612"><ele>823.9999999999999</ele><time>2026-04-19T11:41:38.234Z</time></trkpt><trkpt lat="43.478128" lon="11.9999211"><ele>824.0</ele><time>2026-04-19T11:41:39.234Z</time></trkpt><trkpt lat="43.4780518" lon="11.9998826"><ele>824.0</ele><time>2026-04-19T11:41:40.233Z</time></trkpt><trkpt lat="43.4779826" lon="11.9998464"><ele>824.0</ele><time>2026-04-19T11:41:41.237Z</time></trkpt><trkpt lat="43.4779207" lon="11.9998074"><ele>824.0</ele><time>2026-04-19T11:41:42.234Z</time></trkpt><trkpt lat="43.4778593" lon="11.9997613"><ele>823.9999999999999</ele><time>2026-04-19T11:41:43.234Z</time></trkpt><trkpt lat="43.4778019" lon="11.9997129"><ele>824.0</ele><time>2026-04-19T11:41:44.234Z</time></trkpt><trkpt lat="43.477748" lon="11.9996652"><ele>824.0</ele><time>2026-04-19T11:41:45.233Z</time></trkpt><trkpt lat="43.4776486" lon="11.9995877"><ele>824.0</ele><time>2026-04-19T11:41:47.236Z</time></trkpt><trkpt lat="43.4775768" lon="11.9994999"><ele>824.0</ele><time>2026-04-19T11:41:49.235Z</time></trkpt><trkpt lat="43.4775252" lon="11.9993787"><ele>824.0</ele><time>2026-04-19T11:41:51.234Z</time></trkpt><trkpt lat="43.47749" lon="11.9992319"><ele>824.0</ele><time>2026-04-19T11:41:53.234Z</time></trkpt><trkpt lat="43.4774742" lon="11.9991475"><ele>824.0000000000001</ele><time>2026-04-19T11:41:54.236Z</time></trkpt><trkpt lat="43.4774521" lon="11.9990616"><ele>824.0</ele><time>2026-04-19T11:41:55.235Z</time></trkpt><trkpt lat="43.4774181" lon="11.9988864"><ele>824.0</ele><time>2026-04-19T11:41:57.236Z</time></trkpt><trkpt lat="43.4774013" lon="11.9987945"><ele>824.0</ele><time>2026-04-19T11:41:58.235Z</time></trkpt><trkpt lat="43.4774" lon="11.9987038"><ele>824.0000000000001</ele><time>2026-04-19T11:42:03.236Z</time></trkpt><trkpt lat="43.4774497" lon="11.9985953"><ele>824.0</ele><time>2026-04-19T11:42:06.235Z</time></trkpt><trkpt lat="43.4774719" lon="11.9985131"><ele>824.0</ele><time>2026-04-19T11:42:07.233Z</time></trkpt><trkpt lat="43.477531" lon="11.9983755"><ele>824.0</ele><time>2026-04-19T11:42:09.234Z</time></trkpt><trkpt lat="43.4776529" lon="11.9983014"><ele>824.0</ele><time>2026-04-19T11:42:11.235Z</time></trkpt><trkpt lat="43.4777249" lon="11.9982557"><ele>824.0</ele><time>2026-04-19T11:42:12.236Z</time></trkpt><trkpt lat="43.4778003" lon="11.9982077"><ele>824.0</ele><time>2026-04-19T11:42:13.234Z</time></trkpt><trkpt lat="43.4778642" lon="11.9981607"><ele>824.5000000000001</ele><time>2026-04-19T11:42:14.234Z</time></trkpt><trkpt lat="43.4779227" lon="11.9981215"><ele>825.0</ele><time>2026-04-19T11:42:15.233Z</time></trkpt><trkpt lat="43.4780087" lon="11.9980483"><ele>825.5</ele><time>2026-04-19T11:42:17.234Z</time></trkpt><trkpt lat="43.4780152" lon="11.9979324"><ele>826.0</ele><time>2026-04-19T11:42:19.233Z</time></trkpt><trkpt lat="43.4779913" lon="11.99785"><ele>826.5000000000001</ele><time>2026-04-19T11:42:20.235Z</time></trkpt><trkpt lat="43.4779567" lon="11.9977672"><ele>827.0</ele><time>2026-04-19T11:42:21.234Z</time></trkpt><trkpt lat="43.4779031" lon="11.9976806"><ele>827.0000000000001</ele><time>2026-04-19T11:42:22.234Z</time></trkpt><trkpt lat="43.4778498" lon="11.9975889"><ele>827.0</ele><time>2026-04-19T11:42:23.233Z</time></trkpt><trkpt lat="43.4778117" lon="11.9974925"><ele>827.0</ele><time>2026-04-19T11:42:24.234Z</time></trkpt><trkpt lat="43.4777801" lon="11.9974077"><ele>827.0</ele><time>2026-04-19T11:42:25.235Z</time></trkpt><trkpt lat="43.4777592" lon="11.9972675"><ele>827.0000000000001</ele><time>2026-04-19T11:42:27.234Z</time></trkpt><trkpt lat="43.4777984" lon="11.9971535"><ele>827.0</ele><time>2026-04-19T11:42:29.235Z</time></trkpt><trkpt lat="43.4778849" lon="11.9970245"><ele>824.6</ele><time>2026-04-19T11:42:31.233Z</time></trkpt><trkpt lat="43.4779404" lon="11.9968899"><ele>822.2</ele><time>2026-04-19T11:42:33.235Z</time></trkpt><trkpt lat="43.4779503" lon="11.9967494"><ele>819.8</ele><time>2026-04-19T11:42:35.236Z</time></trkpt><trkpt lat="43.4779324" lon="11.9966477"><ele>817.4</ele><time>2026-04-19T11:42:37.236Z</time></trkpt><trkpt lat="43.4778724" lon="11.9965906"><ele>815.0</ele><time>2026-04-19T11:42:39.235Z</time></trkpt><trkpt lat="43.4777879" lon="11.996535"><ele>815.0000000000001</ele><time>2026-04-19T11:42:41.236Z</time></trkpt><trkpt lat="43.4777183" lon="11.9965003"><ele>815.0</ele><time>2026-04-19T11:42:43.235Z</time></trkpt><trkpt lat="43.47767" lon="11.9964423"><ele>815.0</ele><time>2026-04-19T11:42:46.234Z</time></trkpt><trkpt lat="43.4776531" lon="11.9963441"><ele>815.0</ele><time>2026-04-19T11:42:48.234Z</time></trkpt><trkpt lat="43.4776433" lon="11.9962579"><ele>815.0000000000001</ele><time>2026-04-19T11:42:49.234Z</time></trkpt><trkpt lat="43.4776321" lon="11.996098"><ele>815.0</ele><time>2026-04-19T11:42:51.233Z</time></trkpt><trkpt lat="43.4776307" lon="11.9959843"><ele>815.0000000000001</ele><time>2026-04-19T11:42:53.234Z</time></trkpt><trkpt lat="43.4776289" lon="11.9958614"><ele>815.0</ele><time>2026-04-19T11:42:55.235Z</time></trkpt><trkpt lat="43.4776231" lon="11.9957704"><ele>815.0</ele><time>2026-04-19T11:42:56.235Z</time></trkpt><trkpt lat="43.4776138" lon="11.9956628"><ele>815.0</ele><time>2026-04-19T11:42:57.236Z</time></trkpt><trkpt lat="43.4776039" lon="11.9955435"><ele>815.0000000000001</ele><time>2026-04-19T11:42:58.235Z</time></trkpt><trkpt lat="43.4775881" lon="11.9954112"><ele>815.0</ele><time>2026-04-19T11:42:59.236Z</time></trkpt><trkpt lat="43.4775593" lon="11.9952582"><ele>813.0</ele><time>2026-04-19T11:43:00.236Z</time></trkpt><trkpt lat="43.4775295" lon="11.9951076"><ele>811.0</ele><time>2026-04-19T11:43:01.236Z</time></trkpt><trkpt lat="43.4775063" lon="11.9949724"><ele>809.0</ele><time>2026-04-19T11:43:02.235Z</time></trkpt><trkpt lat="43.4774904" lon="11.9948474"><ele>807.0</ele><time>2026-04-19T11:43:03.235Z</time></trkpt><trkpt lat="43.4774903" lon="11.9947309"><ele>805.0</ele><time>2026-04-19T11:43:04.237Z</time></trkpt><trkpt lat="43.4775002" lon="11.9946207"><ele>804.9999999999999</ele><time>2026-04-19T11:43:05.236Z</time></trkpt><trkpt lat="43.4775185" lon="11.9945193"><ele>805.0</ele><time>2026-04-19T11:43:06.236Z</time></trkpt><trkpt lat="43.4775357" lon="11.9944125"><ele>805.0</ele><time>2026-04-19T11:43:07.236Z</time></trkpt><trkpt lat="43.4775583" lon="11.9942955"><ele>805.0</ele><time>2026-04-19T11:43:08.236Z</time></trkpt><trkpt lat="43.4775912" lon="11.9941751"><ele>804.9999999999999</ele><time>2026-04-19T11:43:09.235Z</time></trkpt><trkpt lat="43.4776315" lon="11.9940683"><ele>805.0</ele><time>2026-04-19T11:43:10.235Z</time></trkpt><trkpt lat="43.477682" lon="11.9939853"><ele>805.4999999999999</ele><time>2026-04-19T11:43:11.235Z</time></trkpt><trkpt lat="43.4777289" lon="11.993912"><ele>806.0</ele><time>2026-04-19T11:43:12.236Z</time></trkpt><trkpt lat="43.4777771" lon="11.9938375"><ele>806.5</ele><time>2026-04-19T11:43:13.238Z</time></trkpt><trkpt lat="43.4778184" lon="11.9937525"><ele>807.0</ele><time>2026-04-19T11:43:14.236Z</time></trkpt><trkpt lat="43.4778563" lon="11.9936577"><ele>807.4999999999999</ele><time>2026-04-19T11:43:15.235Z</time></trkpt><trkpt lat="43.4779021" lon="11.9935574"><ele>808.0</ele><time>2026-04-19T11:43:16.235Z</time></trkpt><trkpt lat="43.4779448" lon="11.9934459"><ele>811.8333333333333</ele><time>2026-04-19T11:43:17.233Z</time></trkpt><trkpt lat="43.477985" lon="11.9933345"><ele>815.6666666666666</ele><time>2026-04-19T11:43:18.235Z</time></trkpt><trkpt lat="43.4780223" lon="11.9932272"><ele>819.5</ele><time>2026-04-19T11:43:19.234Z</time></trkpt><trkpt lat="43.47806" lon="11.993122"><ele>823.3333333333333</ele><time>2026-04-19T11:43:20.236Z</time></trkpt><trkpt lat="43.478088" lon="11.9930226"><ele>827.1666666666666</ele><time>2026-04-19T11:43:21.233Z</time></trkpt><trkpt lat="43.4781016" lon="11.9929325"><ele>831.0</ele><time>2026-04-19T11:43:22.234Z</time></trkpt><trkpt lat="43.4780973" lon="11.9927933"><ele>831.0</ele><time>2026-04-19T11:43:24.234Z</time></trkpt><trkpt lat="43.4780972" lon="11.992701"><ele>831.0</ele><time>2026-04-19T11:43:27.234Z</time></trkpt><trkpt lat="43.4781686" lon="11.9927285"><ele>831.0</ele><time>2026-04-19T11:43:29.235Z</time></trkpt><trkpt lat="43.4782715" lon="11.992736"><ele>831.0</ele><time>2026-04-19T11:43:31.234Z</time></trkpt><trkpt lat="43.4783552" lon="11.9927503"><ele>831.0</ele><time>2026-04-19T11:43:33.234Z</time></trkpt><trkpt lat="43.4784213" lon="11.9928149"><ele>831.0</ele><time>2026-04-19T11:43:35.234Z</time></trkpt><trkpt lat="43.478496" lon="11.992962"><ele>831.0</ele><time>2026-04-19T11:43:37.234Z</time></trkpt><trkpt lat="43.4785512" lon="11.9930599"><ele>831.0</ele><time>2026-04-19T11:43:38.234Z</time></trkpt><trkpt lat="43.4786083" lon="11.9931529"><ele>831.0</ele><time>2026-04-19T11:43:39.233Z</time></trkpt><trkpt lat="43.4786709" lon="11.9932423"><ele>831.0</ele><time>2026-04-19T11:43:40.233Z</time></trkpt><trkpt lat="43.4787248" lon="11.9933221"><ele>831.0</ele><time>2026-04-19T11:43:41.234Z</time></trkpt><trkpt lat="43.4787784" lon="11.9933852"><ele>831.0</ele><time>2026-04-19T11:43:42.233Z</time></trkpt><trkpt lat="43.4788304" lon="11.993438"><ele>828.5999999999999</ele><time>2026-04-19T11:43:43.233Z</time></trkpt><trkpt lat="43.4789168" lon="11.9935189"><ele>826.2</ele><time>2026-04-19T11:43:45.234Z</time></trkpt><trkpt lat="43.4790226" lon="11.9935481"><ele>823.8</ele><time>2026-04-19T11:43:47.232Z</time></trkpt><trkpt lat="43.4791351" lon="11.9935373"><ele>821.4000000000001</ele><time>2026-04-19T11:43:49.234Z</time></trkpt><trkpt lat="43.4792389" lon="11.9934945"><ele>819.0</ele><time>2026-04-19T11:43:51.233Z</time></trkpt><trkpt lat="43.4793215" lon="11.9934178"><ele>823.5</ele><time>2026-04-19T11:43:53.233Z</time></trkpt><trkpt lat="43.4793897" lon="11.9933011"><ele>828.0</ele><time>2026-04-19T11:43:55.233Z</time></trkpt><trkpt lat="43.4794256" lon="11.9932288"><ele>832.5</ele><time>2026-04-19T11:43:56.233Z</time></trkpt><trkpt lat="43.4794661" lon="11.993158"><ele>837.0</ele><time>2026-04-19T11:43:57.233Z</time></trkpt><trkpt lat="43.4795139" lon="11.9930811"><ele>841.5</ele><time>2026-04-19T11:43:58.232Z</time></trkpt><trkpt lat="43.4795482" lon="11.9930051"><ele>846.0</ele><time>2026-04-19T11:43:59.233Z</time></trkpt><trkpt lat="43.479562" lon="11.9928565"><ele>846.0</ele><time>2026-04-19T11:44:01.233Z</time></trkpt><trkpt lat="43.479559" lon="11.9926942"><ele>846.0</ele><time>2026-04-19T11:44:03.233Z</time></trkpt><trkpt lat="43.4795645" lon="11.9925419"><ele>846.0</ele><time>2026-04-19T11:44:05.232Z</time></trkpt><trkpt lat="43.4796069" lon="11.9924005"><ele>846.0</ele><time>2026-04-19T11:44:07.235Z</time></trkpt><trkpt lat="43.479679" lon="11.9923211"><ele>846.0</ele><time>2026-04-19T11:44:09.236Z</time></trkpt><trkpt lat="43.4797736" lon="11.9923103"><ele>849.4</ele><time>2026-04-19T11:44:11.234Z</time></trkpt><trkpt lat="43.4798668" lon="11.9923003"><ele>852.8</ele><time>2026-04-19T11:44:13.232Z</time></trkpt><trkpt lat="43.4799577" lon="11.9922679"><ele>856.1999999999999</ele><time>2026-04-19T11:44:15.233Z</time></trkpt><trkpt lat="43.4800558" lon="11.9922553"><ele>859.5999999999999</ele><time>2026-04-19T11:44:17.233Z</time></trkpt><trkpt lat="43.4801464" lon="11.9922304"><ele>863.0</ele><time>2026-04-19T11:44:19.233Z</time></trkpt><trkpt lat="43.4802363" lon="11.9921378"><ele>863.0000000000001</ele><time>2026-04-19T11:44:21.233Z</time></trkpt><trkpt lat="43.4802898" lon="11.9920578"><ele>863.0</ele><time>2026-04-19T11:44:22.234Z</time></trkpt><trkpt lat="43.4803456" lon="11.991962"><ele>863.0</ele><time>2026-04-19T11:44:23.234Z</time></trkpt><trkpt lat="43.4804048" lon="11.9918766"><ele>863.0</ele><time>2026-04-19T11:44:24.233Z</time></trkpt><trkpt lat="43.4804636" lon="11.9917894"><ele>863.0000000000001</ele><time>2026-04-19T11:44:25.233Z</time></trkpt><trkpt lat="43.4805168" lon="11.9916953"><ele>863.0</ele><time>2026-04-19T11:44:26.234Z</time></trkpt><trkpt lat="43.4805633" lon="11.9916004"><ele>864.8</ele><time>2026-04-19T11:44:27.232Z</time></trkpt><trkpt lat="43.4806067" lon="11.9915012"><ele>866.5999999999999</ele><time>2026-04-19T11:44:28.234Z</time></trkpt><trkpt lat="43.4806454" lon="11.9914064"><ele>868.4000000000001</ele><time>2026-04-19T11:44:29.233Z</time></trkpt><trkpt lat="43.4807013" lon="11.9912777"><ele>870.2</ele><time>2026-04-19T11:44:31.232Z</time></trkpt><trkpt lat="43.4805896" lon="11.9912476"><ele>872.0</ele><time>2026-04-19T11:44:35.233Z</time></trkpt><trkpt lat="43.4805076" lon="11.9912692"><ele>873.1666666666667</ele><time>2026-04-19T11:44:36.233Z</time></trkpt><trkpt lat="43.4804287" lon="11.9912807"><ele>874.3333333333334</ele><time>2026-04-19T11:44:37.234Z</time></trkpt><trkpt lat="43.4803538" lon="11.9912889"><ele>875.5</ele><time>2026-04-19T11:44:38.234Z</time></trkpt><trkpt lat="43.4802906" lon="11.9912992"><ele>876.6666666666667</ele><time>2026-04-19T11:44:39.234Z</time></trkpt><trkpt lat="43.4801819" lon="11.991307"><ele>877.8333333333334</ele><time>2026-04-19T11:44:41.233Z</time></trkpt><trkpt lat="43.4801187" lon="11.991258"><ele>879.0</ele><time>2026-04-19T11:44:43.232Z</time></trkpt><trkpt lat="43.4800584" lon="11.9911776"><ele>879.0</ele><time>2026-04-19T11:44:45.232Z</time></trkpt><trkpt lat="43.4799781" lon="11.991141"><ele>879.0</ele><time>2026-04-19T11:44:47.233Z</time></trkpt><trkpt lat="43.4799145" lon="11.991138"><ele>879.0</ele><time>2026-04-19T11:44:48.234Z</time></trkpt><trkpt lat="43.4798437" lon="11.9911408"><ele>879.0</ele><time>2026-04-19T11:44:49.233Z</time></trkpt><trkpt lat="43.47977" lon="11.9911593"><ele>879.0</ele><time>2026-04-19T11:44:50.233Z</time></trkpt><trkpt lat="43.4796911" lon="11.9911974"><ele>879.0</ele><time>2026-04-19T11:44:51.234Z</time></trkpt><trkpt lat="43.4795998" lon="11.9912416"><ele>881.1666666666666</ele><time>2026-04-19T11:44:52.234Z</time></trkpt><trkpt lat="43.479508" lon="11.9912755"><ele>883.3333333333333</ele><time>2026-04-19T11:44:53.233Z</time></trkpt><trkpt lat="43.4794148" lon="11.9913016"><ele>885.5</ele><time>2026-04-19T11:44:54.233Z</time></trkpt><trkpt lat="43.4793253" lon="11.9913187"><ele>887.6666666666666</ele><time>2026-04-19T11:44:55.234Z</time></trkpt><trkpt lat="43.4792411" lon="11.9913134"><ele>889.8333333333333</ele><time>2026-04-19T11:44:56.233Z</time></trkpt><trkpt lat="43.47916" lon="11.991301"><ele>892.0</ele><time>2026-04-19T11:44:57.234Z</time></trkpt><trkpt lat="43.4790759" lon="11.991284"><ele>891.9999999999999</ele><time>2026-04-19T11:44:58.232Z</time></trkpt><trkpt lat="43.4789973" lon="11.99127"><ele>892.0</ele><time>2026-04-19T11:44:59.234Z</time></trkpt><trkpt lat="43.4789308" lon="11.9912657"><ele>892.0</ele><time>2026-04-19T11:45:00.233Z</time></trkpt><trkpt lat="43.4788147" lon="11.9912592"><ele>892.0</ele><time>2026-04-19T11:45:02.234Z</time></trkpt><trkpt lat="43.478699" lon="11.9912327"><ele>891.9999999999999</ele><time>2026-04-19T11:45:04.233Z</time></trkpt><trkpt lat="43.4786335" lon="11.9911999"><ele>892.0</ele><time>2026-04-19T11:45:05.233Z</time></trkpt><trkpt lat="43.4785721" lon="11.9911619"><ele>891.4000000000001</ele><time>2026-04-19T11:45:06.233Z</time></trkpt><trkpt lat="43.478467" lon="11.9911096"><ele>890.8000000000001</ele><time>2026-04-19T11:45:08.233Z</time></trkpt><trkpt lat="43.4783791" lon="11.9910948"><ele>890.2</ele><time>2026-04-19T11:45:10.233Z</time></trkpt><trkpt lat="43.4783064" lon="11.9910973"><ele>889.6</ele><time>2026-04-19T11:45:12.234Z</time></trkpt><trkpt lat="43.4782361" lon="11.9910794"><ele>889.0</ele><time>2026-04-19T11:45:14.234Z</time></trkpt><trkpt lat="43.4781294" lon="11.9910154"><ele>889.0</ele><time>2026-04-19T11:45:16.233Z</time></trkpt><trkpt lat="43.4780524" lon="11.9909592"><ele>889.0</ele><time>2026-04-19T11:45:17.233Z</time></trkpt><trkpt lat="43.4779551" lon="11.9908885"><ele>889.0</ele><time>2026-04-19T11:45:18.233Z</time></trkpt><trkpt lat="43.4778318" lon="11.9908131"><ele>889.0</ele><time>2026-04-19T11:45:19.234Z</time></trkpt><trkpt lat="43.4777119" lon="11.9907421"><ele>891.6</ele><time>2026-04-19T11:45:20.233Z</time></trkpt><trkpt lat="43.4776086" lon="11.9906849"><ele>894.2</ele><time>2026-04-19T11:45:21.234Z</time></trkpt><trkpt lat="43.4775255" lon="11.9906404"><ele>896.8000000000001</ele><time>2026-04-19T11:45:22.234Z</time></trkpt><trkpt lat="43.4774465" lon="11.9905943"><ele>899.4000000000001</ele><time>2026-04-19T11:45:23.233Z</time></trkpt><trkpt lat="43.477361" lon="11.9905399"><ele>902.0</ele><time>2026-04-19T11:45:24.233Z</time></trkpt><trkpt lat="43.477272" lon="11.9904792"><ele>902.0</ele><time>2026-04-19T11:45:25.233Z</time></trkpt><trkpt lat="43.4771671" lon="11.9904163"><ele>902.0</ele><time>2026-04-19T11:45:26.234Z</time></trkpt><trkpt lat="43.4770542" lon="11.990351"><ele>902.0</ele><time>2026-04-19T11:45:27.233Z</time></trkpt><trkpt lat="43.4769499" lon="11.9902926"><ele>902.0</ele><time>2026-04-19T11:45:28.234Z</time></trkpt><trkpt lat="43.4768519" lon="11.9902378"><ele>901.4000000000001</ele><time>2026-04-19T11:45:29.233Z</time></trkpt><trkpt lat="43.4767566" lon="11.9901771"><ele>900.8000000000001</ele><time>2026-04-19T11:45:30.234Z</time></trkpt><trkpt lat="43.4766686" lon="11.9901104"><ele>900.2</ele><time>2026-04-19T11:45:31.233Z</time></trkpt><trkpt lat="43.4765823" lon="11.9900418"><ele>899.6</ele><time>2026-04-19T11:45:32.234Z</time></trkpt><trkpt lat="43.4765002" lon="11.9899817"><ele>899.0</ele><time>2026-04-19T11:45:33.233Z</time></trkpt><trkpt lat="43.4764218" lon="11.9899182"><ele>899.0</ele><time>2026-04-19T11:45:34.233Z</time></trkpt><trkpt lat="43.4763493" lon="11.9898403"><ele>899.0000000000001</ele><time>2026-04-19T11:45:35.235Z</time></trkpt><trkpt lat="43.476279" lon="11.9897569"><ele>899.0000000000001</ele><time>2026-04-19T11:45:36.233Z</time></trkpt><trkpt lat="43.4762024" lon="11.9896675"><ele>899.0</ele><time>2026-04-19T11:45:37.233Z</time></trkpt><trkpt lat="43.4761202" lon="11.9895755"><ele>899.0</ele><time>2026-04-19T11:45:38.234Z</time></trkpt><trkpt lat="43.476034" lon="11.9894844"><ele>897.8000000000001</ele><time>2026-04-19T11:45:39.234Z</time></trkpt><trkpt lat="43.4759463" lon="11.9894072"><ele>896.6000000000001</ele><time>2026-04-19T11:45:40.234Z</time></trkpt><trkpt lat="43.4758633" lon="11.9893504"><ele>895.4</ele><time>2026-04-19T11:45:41.233Z</time></trkpt><trkpt lat="43.4757747" lon="11.9893049"><ele>894.2</ele><time>2026-04-19T11:45:42.233Z</time></trkpt><trkpt lat="43.4756872" lon="11.9892629"><ele>893.0</ele><time>2026-04-19T11:45:43.233Z</time></trkpt><trkpt lat="43.4756074" lon="11.9892299"><ele>893.0000000000001</ele><time>2026-04-19T11:45:44.234Z</time></trkpt><trkpt lat="43.475532" lon="11.9892128"><ele>893.0</ele><time>2026-04-19T11:45:45.235Z</time></trkpt><trkpt lat="43.4754611" lon="11.9892148"><ele>893.0</ele><time>2026-04-19T11:45:46.233Z</time></trkpt><trkpt lat="43.4753793" lon="11.9892237"><ele>893.0</ele><time>2026-04-19T11:45:47.232Z</time></trkpt><trkpt lat="43.4752807" lon="11.9892267"><ele>893.0000000000001</ele><time>2026-04-19T11:45:48.235Z</time></trkpt><trkpt lat="43.475173" lon="11.989226"><ele>893.0</ele><time>2026-04-19T11:45:49.232Z</time></trkpt><trkpt lat="43.4750678" lon="11.9892217"><ele>894.0000000000001</ele><time>2026-04-19T11:45:50.233Z</time></trkpt><trkpt lat="43.4749662" lon="11.9892055"><ele>895.0</ele><time>2026-04-19T11:45:51.234Z</time></trkpt><trkpt lat="43.4748955" lon="11.9891778"><ele>896.0</ele><time>2026-04-19T11:45:52.232Z</time></trkpt><trkpt lat="43.4748336" lon="11.9891438"><ele>897.0</ele><time>2026-04-19T11:45:53.233Z</time></trkpt><trkpt lat="43.4747659" lon="11.9891091"><ele>898.0000000000001</ele><time>2026-04-19T11:45:54.234Z</time></trkpt><trkpt lat="43.4746979" lon="11.989074"><ele>899.0</ele><time>2026-04-19T11:45:55.233Z</time></trkpt><trkpt lat="43.4746382" lon="11.9890374"><ele>898.2</ele><time>2026-04-19T11:45:56.234Z</time></trkpt><trkpt lat="43.4745765" lon="11.9890012"><ele>897.4000000000001</ele><time>2026-04-19T11:45:57.232Z</time></trkpt><trkpt lat="43.4744842" lon="11.9889648"><ele>896.6</ele><time>2026-04-19T11:45:59.233Z</time></trkpt><trkpt lat="43.474415" lon="11.9889633"><ele>895.8</ele><time>2026-04-19T11:46:20.233Z</time></trkpt><trkpt lat="43.4743267" lon="11.9889467"><ele>895.0</ele><time>2026-04-19T11:46:22.234Z</time></trkpt><trkpt lat="43.4742017" lon="11.9888967"><ele>895.0</ele><time>2026-04-19T11:46:24.232Z</time></trkpt><trkpt lat="43.47413" lon="11.9888517"><ele>895.0</ele><time>2026-04-19T11:46:25.233Z</time></trkpt><trkpt lat="43.47406" lon="11.9888083"><ele>895.0</ele><time>2026-04-19T11:46:26.233Z</time></trkpt><trkpt lat="43.4739817" lon="11.9887767"><ele>895.0</ele><time>2026-04-19T11:46:27.232Z</time></trkpt><trkpt lat="43.4739083" lon="11.9887517"><ele>895.0</ele><time>2026-04-19T11:46:28.234Z</time></trkpt><trkpt lat="43.473845" lon="11.9887233"><ele>895.0</ele><time>2026-04-19T11:46:29.234Z</time></trkpt><trkpt lat="43.4737833" lon="11.988695"><ele>895.0</ele><time>2026-04-19T11:46:30.233Z</time></trkpt><trkpt lat="43.4737" lon="11.98864"><ele>894.6</ele><time>2026-04-19T11:46:32.234Z</time></trkpt><trkpt lat="43.4736633" lon="11.9885667"><ele>894.2</ele><time>2026-04-19T11:46:34.233Z</time></trkpt><trkpt lat="43.4736933" lon="11.9884417"><ele>893.8</ele><time>2026-04-19T11:46:37.233Z</time></trkpt><trkpt lat="43.4737633" lon="11.9883017"><ele>893.4</ele><time>2026-04-19T11:46:39.233Z</time></trkpt><trkpt lat="43.4737967" lon="11.9882217"><ele>893.0</ele><time>2026-04-19T11:46:40.233Z</time></trkpt><trkpt lat="43.47382" lon="11.9880683"><ele>893.0</ele><time>2026-04-19T11:46:42.234Z</time></trkpt><trkpt lat="43.4738067" lon="11.9879467"><ele>893.0</ele><time>2026-04-19T11:46:44.235Z</time></trkpt><trkpt lat="43.4737567" lon="11.9878633"><ele>893.0</ele><time>2026-04-19T11:46:46.232Z</time></trkpt><trkpt lat="43.4736667" lon="11.987775"><ele>893.0</ele><time>2026-04-19T11:46:48.233Z</time></trkpt><trkpt lat="43.473565" lon="11.9877333"><ele>893.0</ele><time>2026-04-19T11:46:50.233Z</time></trkpt><trkpt lat="43.4734433" lon="11.987715"><ele>891.5999999999999</ele><time>2026-04-19T11:46:52.234Z</time></trkpt><trkpt lat="43.473315" lon="11.9876683"><ele>890.1999999999999</ele><time>2026-04-19T11:46:54.233Z</time></trkpt><trkpt lat="43.4732533" lon="11.9876383"><ele>888.8</ele><time>2026-04-19T11:46:55.234Z</time></trkpt><trkpt lat="43.47319" lon="11.9875967"><ele>887.4</ele><time>2026-04-19T11:46:56.234Z</time></trkpt><trkpt lat="43.4730867" lon="11.9875233"><ele>886.0</ele><time>2026-04-19T11:46:58.233Z</time></trkpt><trkpt lat="43.4729867" lon="11.9874417"><ele>880.9999999999999</ele><time>2026-04-19T11:47:00.232Z</time></trkpt><trkpt lat="43.4728933" lon="11.987315"><ele>876.0</ele><time>2026-04-19T11:47:02.235Z</time></trkpt><trkpt lat="43.4728483" lon="11.9872267"><ele>871.0</ele><time>2026-04-19T11:47:03.233Z</time></trkpt><trkpt lat="43.472815" lon="11.98715"><ele>866.0</ele><time>2026-04-19T11:47:04.232Z</time></trkpt><trkpt lat="43.472785" lon="11.9870733"><ele>860.9999999999999</ele><time>2026-04-19T11:47:05.233Z</time></trkpt><trkpt lat="43.4727517" lon="11.9869983"><ele>856.0</ele><time>2026-04-19T11:47:06.233Z</time></trkpt><trkpt lat="43.4727067" lon="11.98692"><ele>855.9999999999999</ele><time>2026-04-19T11:47:07.234Z</time></trkpt><trkpt lat="43.4726567" lon="11.98683"><ele>856.0</ele><time>2026-04-19T11:47:08.235Z</time></trkpt><trkpt lat="43.4725983" lon="11.986745"><ele>856.0</ele><time>2026-04-19T11:47:09.233Z</time></trkpt><trkpt lat="43.4725433" lon="11.986655"><ele>856.0</ele><time>2026-04-19T11:47:10.233Z</time></trkpt><trkpt lat="43.4724917" lon="11.986575"><ele>855.9999999999999</ele><time>2026-04-19T11:47:11.235Z</time></trkpt><trkpt lat="43.4724483" lon="11.986505"><ele>856.0</ele><time>2026-04-19T11:47:12.235Z</time></trkpt><trkpt lat="43.4723817" lon="11.9863733"><ele>857.6666666666666</ele><time>2026-04-19T11:47:14.236Z</time></trkpt><trkpt lat="43.4723533" lon="11.98629"><ele>859.3333333333333</ele><time>2026-04-19T11:47:15.233Z</time></trkpt><trkpt lat="43.4723283" lon="11.9861867"><ele>861.0</ele><time>2026-04-19T11:47:16.234Z</time></trkpt><trkpt lat="43.4723133" lon="11.9860617"><ele>862.6666666666667</ele><time>2026-04-19T11:47:17.234Z</time></trkpt><trkpt lat="43.4723083" lon="11.9859417"><ele>864.3333333333334</ele><time>2026-04-19T11:47:18.233Z</time></trkpt><trkpt lat="43.4723083" lon="11.9858317"><ele>866.0</ele><time>2026-04-19T11:47:19.233Z</time></trkpt><trkpt lat="43.4723133" lon="11.9857383"><ele>867.0000000000001</ele><time>2026-04-19T11:47:20.233Z</time></trkpt><trkpt lat="43.4723333" lon="11.9856483"><ele>868.0</ele><time>2026-04-19T11:47:21.233Z</time></trkpt><trkpt lat="43.4723567" lon="11.9855617"><ele>869.0</ele><time>2026-04-19T11:47:22.233Z</time></trkpt><trkpt lat="43.4723867" lon="11.9854817"><ele>870.0</ele><time>2026-04-19T11:47:23.235Z</time></trkpt><trkpt lat="43.47244" lon="11.98541"><ele>871.0000000000001</ele><time>2026-04-19T11:47:24.233Z</time></trkpt><trkpt lat="43.4724983" lon="11.985325"><ele>872.0</ele><time>2026-04-19T11:47:25.233Z</time></trkpt><trkpt lat="43.47256" lon="11.9852217"><ele>872.0</ele><time>2026-04-19T11:47:26.234Z</time></trkpt><trkpt lat="43.4726117" lon="11.98511"><ele>872.0</ele><time>2026-04-19T11:47:27.234Z</time></trkpt><trkpt lat="43.4726583" lon="11.984985"><ele>872.0</ele><time>2026-04-19T11:47:28.234Z</time></trkpt><trkpt lat="43.47269" lon="11.9848533"><ele>872.0</ele><time>2026-04-19T11:47:29.234Z</time></trkpt><trkpt lat="43.4727067" lon="11.9847117"><ele>872.0</ele><time>2026-04-19T11:47:30.233Z</time></trkpt><trkpt lat="43.4727133" lon="11.984565"><ele>871.5</ele><time>2026-04-19T11:47:31.234Z</time></trkpt><trkpt lat="43.4727017" lon="11.9844183"><ele>871.0</ele><time>2026-04-19T11:47:32.234Z</time></trkpt><trkpt lat="43.472675" lon="11.9842717"><ele>870.5</ele><time>2026-04-19T11:47:33.233Z</time></trkpt><trkpt lat="43.4726333" lon="11.9841183"><ele>870.0</ele><time>2026-04-19T11:47:34.233Z</time></trkpt><trkpt lat="43.4725883" lon="11.983945"><ele>871.5</ele><time>2026-04-19T11:47:35.233Z</time></trkpt><trkpt lat="43.4725283" lon="11.9837617"><ele>873.0</ele><time>2026-04-19T11:47:36.233Z</time></trkpt><trkpt lat="43.4724733" lon="11.9835717"><ele>874.5</ele><time>2026-04-19T11:47:37.232Z</time></trkpt><trkpt lat="43.472425" lon="11.9834017"><ele>876.0</ele><time>2026-04-19T11:47:38.233Z</time></trkpt><trkpt lat="43.4723783" lon="11.9832483"><ele>874.1999999999999</ele><time>2026-04-19T11:47:39.234Z</time></trkpt><trkpt lat="43.4723233" lon="11.9831133"><ele>872.3999999999999</ele><time>2026-04-19T11:47:40.234Z</time></trkpt><trkpt lat="43.4722717" lon="11.9829783"><ele>870.6</ele><time>2026-04-19T11:47:41.234Z</time></trkpt><trkpt lat="43.47222" lon="11.982845"><ele>868.8</ele><time>2026-04-19T11:47:42.234Z</time></trkpt><trkpt lat="43.4721583" lon="11.9827317"><ele>867.0</ele><time>2026-04-19T11:47:43.233Z</time></trkpt><trkpt lat="43.4720767" lon="11.9826267"><ele>867.0</ele><time>2026-04-19T11:47:44.233Z</time></trkpt><trkpt lat="43.4719817" lon="11.9825383"><ele>867.0</ele><time>2026-04-19T11:47:45.235Z</time></trkpt><trkpt lat="43.4718567" lon="11.982465"><ele>867.0</ele><time>2026-04-19T11:47:46.233Z</time></trkpt><trkpt lat="43.4717267" lon="11.982415"><ele>867.0</ele><time>2026-04-19T11:47:47.234Z</time></trkpt><trkpt lat="43.4715967" lon="11.9823833"><ele>870.0</ele><time>2026-04-19T11:47:48.233Z</time></trkpt><trkpt lat="43.4714917" lon="11.98234"><ele>873.0</ele><time>2026-04-19T11:47:49.233Z</time></trkpt><trkpt lat="43.4714033" lon="11.9822833"><ele>876.0</ele><time>2026-04-19T11:47:50.234Z</time></trkpt><trkpt lat="43.47132" lon="11.9821967"><ele>879.0</ele><time>2026-04-19T11:47:51.234Z</time></trkpt><trkpt lat="43.47124" lon="11.982095"><ele>882.0</ele><time>2026-04-19T11:47:52.234Z</time></trkpt><trkpt lat="43.4711767" lon="11.981995"><ele>882.0</ele><time>2026-04-19T11:47:53.233Z</time></trkpt><trkpt lat="43.4711467" lon="11.9819083"><ele>882.0</ele><time>2026-04-19T11:47:54.233Z</time></trkpt><trkpt lat="43.4711367" lon="11.9817767"><ele>882.0</ele><time>2026-04-19T11:47:56.233Z</time></trkpt><trkpt lat="43.471195" lon="11.9817283"><ele>882.0</ele><time>2026-04-19T11:47:57.234Z</time></trkpt><trkpt lat="43.4712633" lon="11.9816983"><ele>882.0</ele><time>2026-04-19T11:47:58.234Z</time></trkpt><trkpt lat="43.4713517" lon="11.9817133"><ele>882.0</ele><time>2026-04-19T11:47:59.232Z</time></trkpt><trkpt lat="43.47145" lon="11.9817367"><ele>882.8</ele><time>2026-04-19T11:48:00.234Z</time></trkpt><trkpt lat="43.4715583" lon="11.9817267"><ele>883.6</ele><time>2026-04-19T11:48:01.233Z</time></trkpt><trkpt lat="43.4716667" lon="11.9817033"><ele>884.3999999999999</ele><time>2026-04-19T11:48:02.233Z</time></trkpt><trkpt lat="43.4717733" lon="11.9816767"><ele>885.1999999999999</ele><time>2026-04-19T11:48:03.233Z</time></trkpt><trkpt lat="43.4718833" lon="11.9816283"><ele>886.0</ele><time>2026-04-19T11:48:04.232Z</time></trkpt><trkpt lat="43.4719917" lon="11.9815767"><ele>889.1999999999999</ele><time>2026-04-19T11:48:05.235Z</time></trkpt><trkpt lat="43.4721017" lon="11.9815233"><ele>892.3999999999999</ele><time>2026-04-19T11:48:06.233Z</time></trkpt><trkpt lat="43.4721983" lon="11.98148"><ele>895.6</ele><time>2026-04-19T11:48:07.232Z</time></trkpt><trkpt lat="43.4722767" lon="11.9814617"><ele>898.8</ele><time>2026-04-19T11:48:08.234Z</time></trkpt><trkpt lat="43.4723467" lon="11.981465"><ele>902.0</ele><time>2026-04-19T11:48:09.234Z</time></trkpt><trkpt lat="43.472455" lon="11.9815467"><ele>904.8</ele><time>2026-04-19T11:48:11.233Z</time></trkpt><trkpt lat="43.4725267" lon="11.98166"><ele>907.6</ele><time>2026-04-19T11:48:13.233Z</time></trkpt><trkpt lat="43.472615" lon="11.9816483"><ele>910.3999999999999</ele><time>2026-04-19T11:48:15.233Z</time></trkpt><trkpt lat="43.47265" lon="11.9815"><ele>913.1999999999999</ele><time>2026-04-19T11:48:17.234Z</time></trkpt><trkpt lat="43.4726367" lon="11.98137"><ele>916.0</ele><time>2026-04-19T11:48:18.233Z</time></trkpt><trkpt lat="43.4726267" lon="11.9812333"><ele>916.0</ele><time>2026-04-19T11:48:19.233Z</time></trkpt><trkpt lat="43.4726" lon="11.9810883"><ele>915.9999999999999</ele><time>2026-04-19T11:48:20.234Z</time></trkpt><trkpt lat="43.4725567" lon="11.9809467"><ele>915.9999999999999</ele><time>2026-04-19T11:48:21.234Z</time></trkpt><trkpt lat="43.472495" lon="11.9808183"><ele>916.0</ele><time>2026-04-19T11:48:22.233Z</time></trkpt><trkpt lat="43.47243" lon="11.9806983"><ele>916.0</ele><time>2026-04-19T11:48:23.233Z</time></trkpt><trkpt lat="43.4723683" lon="11.9805833"><ele>917.0</ele><time>2026-04-19T11:48:24.235Z</time></trkpt><trkpt lat="43.4722967" lon="11.9804583"><ele>917.9999999999999</ele><time>2026-04-19T11:48:25.234Z</time></trkpt><trkpt lat="43.4722183" lon="11.980335"><ele>918.9999999999999</ele><time>2026-04-19T11:48:26.234Z</time></trkpt><trkpt lat="43.4721367" lon="11.98024"><ele>920.0</ele><time>2026-04-19T11:48:27.233Z</time></trkpt><trkpt lat="43.4720467" lon="11.9801633"><ele>921.0</ele><time>2026-04-19T11:48:28.234Z</time></trkpt><trkpt lat="43.471945" lon="11.9800983"><ele>921.0</ele><time>2026-04-19T11:48:29.233Z</time></trkpt><trkpt lat="43.4718267" lon="11.9800467"><ele>921.0</ele><time>2026-04-19T11:48:30.233Z</time></trkpt><trkpt lat="43.4716917" lon="11.9800117"><ele>921.0</ele><time>2026-04-19T11:48:31.233Z</time></trkpt><trkpt lat="43.4715433" lon="11.9799933"><ele>921.0</ele><time>2026-04-19T11:48:32.235Z</time></trkpt><trkpt lat="43.4713833" lon="11.979975"><ele>927.0</ele><time>2026-04-19T11:48:33.234Z</time></trkpt><trkpt lat="43.4712333" lon="11.9799617"><ele>933.0</ele><time>2026-04-19T11:48:34.233Z</time></trkpt><trkpt lat="43.471085" lon="11.9799533"><ele>939.0</ele><time>2026-04-19T11:48:35.233Z</time></trkpt><trkpt lat="43.4709417" lon="11.97995"><ele>945.0</ele><time>2026-04-19T11:48:36.234Z</time></trkpt><trkpt lat="43.4708133" lon="11.9799567"><ele>945.0</ele><time>2026-04-19T11:48:37.234Z</time></trkpt><trkpt lat="43.47071" lon="11.9799717"><ele>945.0</ele><time>2026-04-19T11:48:38.235Z</time></trkpt><trkpt lat="43.4706217" lon="11.9799733"><ele>945.0</ele><time>2026-04-19T11:48:39.233Z</time></trkpt><trkpt lat="43.4705383" lon="11.97996"><ele>945.0</ele><time>2026-04-19T11:48:40.233Z</time></trkpt><trkpt lat="43.4704617" lon="11.979925"><ele>945.0</ele><time>2026-04-19T11:48:41.233Z</time></trkpt><trkpt lat="43.4703883" lon="11.9798767"><ele>945.0</ele><time>2026-04-19T11:48:42.233Z</time></trkpt><trkpt lat="43.4703167" lon="11.979815"><ele>945.2</ele><time>2026-04-19T11:48:43.233Z</time></trkpt><trkpt lat="43.47024" lon="11.9797283"><ele>945.4</ele><time>2026-04-19T11:48:44.233Z</time></trkpt><trkpt lat="43.4701683" lon="11.97963"><ele>945.5999999999999</ele><time>2026-04-19T11:48:45.233Z</time></trkpt><trkpt lat="43.4701083" lon="11.9795117"><ele>945.8</ele><time>2026-04-19T11:48:46.233Z</time></trkpt><trkpt lat="43.47006" lon="11.9793917"><ele>946.0</ele><time>2026-04-19T11:48:47.233Z</time></trkpt><trkpt lat="43.4700217" lon="11.979285"><ele>945.9999999999999</ele><time>2026-04-19T11:48:48.233Z</time></trkpt><trkpt lat="43.469995" lon="11.9791983"><ele>946.0</ele><time>2026-04-19T11:48:49.233Z</time></trkpt><trkpt lat="43.469955" lon="11.979065"><ele>946.0</ele><time>2026-04-19T11:49:04.234Z</time></trkpt><trkpt lat="43.4698933" lon="11.97892"><ele>946.0</ele><time>2026-04-19T11:49:06.233Z</time></trkpt><trkpt lat="43.4698583" lon="11.9788383"><ele>945.9999999999999</ele><time>2026-04-19T11:49:07.234Z</time></trkpt><trkpt lat="43.4698183" lon="11.9787483"><ele>946.0</ele><time>2026-04-19T11:49:08.234Z</time></trkpt><trkpt lat="43.46977" lon="11.9786467"><ele>947.75</ele><time>2026-04-19T11:49:09.234Z</time></trkpt><trkpt lat="43.4697167" lon="11.9785317"><ele>949.5</ele><time>2026-04-19T11:49:10.234Z</time></trkpt><trkpt lat="43.4696583" lon="11.9784"><ele>951.25</ele><time>2026-04-19T11:49:11.234Z</time></trkpt><trkpt lat="43.4696" lon="11.97826"><ele>953.0</ele><time>2026-04-19T11:49:12.234Z</time></trkpt><trkpt lat="43.4695417" lon="11.9781117"><ele>953.0</ele><time>2026-04-19T11:49:13.233Z</time></trkpt><trkpt lat="43.4694783" lon="11.9779617"><ele>953.0</ele><time>2026-04-19T11:49:14.233Z</time></trkpt><trkpt lat="43.469415" lon="11.9778183"><ele>953.0</ele><time>2026-04-19T11:49:15.234Z</time></trkpt><trkpt lat="43.469355" lon="11.9776817"><ele>953.0</ele><time>2026-04-19T11:49:16.233Z</time></trkpt><trkpt lat="43.4692983" lon="11.97755"><ele>953.0</ele><time>2026-04-19T11:49:17.233Z</time></trkpt><trkpt lat="43.4692433" lon="11.9774217"><ele>953.0</ele><time>2026-04-19T11:49:18.234Z</time></trkpt><trkpt lat="43.4691867" lon="11.9772917"><ele>953.0</ele><time>2026-04-19T11:49:19.233Z</time></trkpt><trkpt lat="43.4691317" lon="11.9771583"><ele>953.0</ele><time>2026-04-19T11:49:20.233Z</time></trkpt><trkpt lat="43.4690733" lon="11.9770233"><ele>953.0</ele><time>2026-04-19T11:49:21.233Z</time></trkpt><trkpt lat="43.4690167" lon="11.976885"><ele>953.0</ele><time>2026-04-19T11:49:22.233Z</time></trkpt><trkpt lat="43.468955" lon="11.97675"><ele>953.0</ele><time>2026-04-19T11:49:23.233Z</time></trkpt><trkpt lat="43.4688967" lon="11.9766133"><ele>953.0</ele><time>2026-04-19T11:49:24.234Z</time></trkpt><trkpt lat="43.4688417" lon="11.9764683"><ele>953.0</ele><time>2026-04-19T11:49:25.234Z</time></trkpt><trkpt lat="43.4687917" lon="11.9763133"><ele>948.2</ele><time>2026-04-19T11:49:26.234Z</time></trkpt><trkpt lat="43.4687467" lon="11.9761667"><ele>943.4</ele><time>2026-04-19T11:49:27.233Z</time></trkpt><trkpt lat="43.4687083" lon="11.9760367"><ele>938.6000000000001</ele><time>2026-04-19T11:49:28.234Z</time></trkpt><trkpt lat="43.4686767" lon="11.9759167"><ele>933.8000000000001</ele><time>2026-04-19T11:49:29.234Z</time></trkpt><trkpt lat="43.4686533" lon="11.9757933"><ele>929.0</ele><time>2026-04-19T11:49:30.233Z</time></trkpt><trkpt lat="43.4686417" lon="11.9756683"><ele>929.0000000000001</ele><time>2026-04-19T11:49:31.233Z</time></trkpt><trkpt lat="43.4686467" lon="11.9755417"><ele>929.0</ele><time>2026-04-19T11:49:32.234Z</time></trkpt><trkpt lat="43.4686667" lon="11.9754183"><ele>929.0</ele><time>2026-04-19T11:49:33.234Z</time></trkpt><trkpt lat="43.468695" lon="11.9753033"><ele>929.0</ele><time>2026-04-19T11:49:34.234Z</time></trkpt><trkpt lat="43.4687267" lon="11.9752"><ele>929.0000000000001</ele><time>2026-04-19T11:49:35.233Z</time></trkpt><trkpt lat="43.4687633" lon="11.97511"><ele>929.0</ele><time>2026-04-19T11:49:36.233Z</time></trkpt><trkpt lat="43.4688133" lon="11.975035"><ele>931.0</ele><time>2026-04-19T11:49:37.233Z</time></trkpt><trkpt lat="43.46887" lon="11.9749867"><ele>933.0000000000001</ele><time>2026-04-19T11:49:38.233Z</time></trkpt><trkpt lat="43.4689367" lon="11.9749617"><ele>935.0</ele><time>2026-04-19T11:49:39.233Z</time></trkpt><trkpt lat="43.4690117" lon="11.9749517"><ele>937.0</ele><time>2026-04-19T11:49:40.234Z</time></trkpt><trkpt lat="43.4690883" lon="11.9749333"><ele>939.0000000000001</ele><time>2026-04-19T11:49:41.234Z</time></trkpt><trkpt lat="43.469155" lon="11.9748917"><ele>941.0</ele><time>2026-04-19T11:49:42.233Z</time></trkpt><trkpt lat="43.46921" lon="11.9748183"><ele>943.0</ele><time>2026-04-19T11:49:43.234Z</time></trkpt><trkpt lat="43.4692417" lon="11.9747133"><ele>943.0</ele><time>2026-04-19T11:49:44.234Z</time></trkpt><trkpt lat="43.4692517" lon="11.9745767"><ele>943.0</ele><time>2026-04-19T11:49:45.234Z</time></trkpt><trkpt lat="43.4692283" lon="11.9744283"><ele>943.0</ele><time>2026-04-19T11:49:46.234Z</time></trkpt><trkpt lat="43.469185" lon="11.9742883"><ele>943.0</ele><time>2026-04-19T11:49:47.234Z</time></trkpt><trkpt lat="43.4691233" lon="11.9741517"><ele>943.0</ele><time>2026-04-19T11:49:48.232Z</time></trkpt><trkpt lat="43.4690533" lon="11.97401"><ele>941.5999999999999</ele><time>2026-04-19T11:49:49.233Z</time></trkpt><trkpt lat="43.4689883" lon="11.9738617"><ele>940.1999999999999</ele><time>2026-04-19T11:49:50.234Z</time></trkpt><trkpt lat="43.46893" lon="11.973725"><ele>938.8</ele><time>2026-04-19T11:49:51.233Z</time></trkpt><trkpt lat="43.4688767" lon="11.9736033"><ele>937.4</ele><time>2026-04-19T11:49:52.233Z</time></trkpt><trkpt lat="43.46882" lon="11.97349"><ele>936.0</ele><time>2026-04-19T11:49:53.238Z</time></trkpt><trkpt lat="43.4687733" lon="11.97337"><ele>932.0</ele><time>2026-04-19T11:49:54.234Z</time></trkpt><trkpt lat="43.468734" lon="11.9732524"><ele>927.9999999999999</ele><time>2026-04-19T11:49:55.234Z</time></trkpt><trkpt lat="43.4687065" lon="11.9731308"><ele>923.9999999999999</ele><time>2026-04-19T11:49:56.235Z</time></trkpt><trkpt lat="43.4686933" lon="11.9730026"><ele>920.0</ele><time>2026-04-19T11:49:57.234Z</time></trkpt><trkpt lat="43.4686932" lon="11.9728633"><ele>916.0</ele><time>2026-04-19T11:49:58.234Z</time></trkpt><trkpt lat="43.4687054" lon="11.9727227"><ele>916.0</ele><time>2026-04-19T11:49:59.234Z</time></trkpt><trkpt lat="43.4687238" lon="11.97259"><ele>915.9999999999999</ele><time>2026-04-19T11:50:00.233Z</time></trkpt><trkpt lat="43.4687489" lon="11.972467"><ele>915.9999999999999</ele><time>2026-04-19T11:50:01.233Z</time></trkpt><trkpt lat="43.4687873" lon="11.9723459"><ele>916.0</ele><time>2026-04-19T11:50:02.233Z</time></trkpt><trkpt lat="43.4688508" lon="11.9722195"><ele>916.0</ele><time>2026-04-19T11:50:03.233Z</time></trkpt><trkpt lat="43.4689291" lon="11.9720905"><ele>916.0</ele><time>2026-04-19T11:50:04.235Z</time></trkpt><trkpt lat="43.469011" lon="11.9719579"><ele>916.0</ele><time>2026-04-19T11:50:05.233Z</time></trkpt><trkpt lat="43.4690965" lon="11.9718225"><ele>916.0</ele><time>2026-04-19T11:50:06.234Z</time></trkpt><trkpt lat="43.4691798" lon="11.9716855"><ele>916.0</ele><time>2026-04-19T11:50:07.233Z</time></trkpt><trkpt lat="43.4692645" lon="11.9715441"><ele>916.0</ele><time>2026-04-19T11:50:08.234Z</time></trkpt><trkpt lat="43.4693508" lon="11.971406"><ele>916.0</ele><time>2026-04-19T11:50:09.234Z</time></trkpt><trkpt lat="43.4694365" lon="11.9712695"><ele>916.0</ele><time>2026-04-19T11:50:10.233Z</time></trkpt><trkpt lat="43.4695156" lon="11.9711341"><ele>916.0</ele><time>2026-04-19T11:50:11.233Z</time></trkpt><trkpt lat="43.4695913" lon="11.9710004"><ele>915.0</ele><time>2026-04-19T11:50:12.234Z</time></trkpt><trkpt lat="43.4696604" lon="11.9708712"><ele>913.9999999999999</ele><time>2026-04-19T11:50:13.232Z</time></trkpt><trkpt lat="43.4697224" lon="11.9707464"><ele>912.9999999999999</ele><time>2026-04-19T11:50:14.234Z</time></trkpt><trkpt lat="43.469788" lon="11.9706268"><ele>912.0</ele><time>2026-04-19T11:50:15.233Z</time></trkpt><trkpt lat="43.4698615" lon="11.9705087"><ele>911.0</ele><time>2026-04-19T11:50:16.233Z</time></trkpt><trkpt lat="43.4699477" lon="11.9703897"><ele>911.0</ele><time>2026-04-19T11:50:17.234Z</time></trkpt><trkpt lat="43.4700438" lon="11.9702717"><ele>911.0</ele><time>2026-04-19T11:50:18.234Z</time></trkpt><trkpt lat="43.4701449" lon="11.9701552"><ele>911.0</ele><time>2026-04-19T11:50:19.239Z</time></trkpt><trkpt lat="43.4702461" lon="11.9700442"><ele>911.0</ele><time>2026-04-19T11:50:20.233Z</time></trkpt><trkpt lat="43.4703492" lon="11.9699355"><ele>909.5</ele><time>2026-04-19T11:50:21.233Z</time></trkpt><trkpt lat="43.4704523" lon="11.9698195"><ele>908.0</ele><time>2026-04-19T11:50:22.234Z</time></trkpt><trkpt lat="43.4705526" lon="11.9696983"><ele>906.5</ele><time>2026-04-19T11:50:23.233Z</time></trkpt><trkpt lat="43.4706491" lon="11.9695736"><ele>905.0</ele><time>2026-04-19T11:50:24.233Z</time></trkpt><trkpt lat="43.4707336" lon="11.9694481"><ele>905.0</ele><time>2026-04-19T11:50:25.234Z</time></trkpt><trkpt lat="43.4708056" lon="11.9693296"><ele>905.0</ele><time>2026-04-19T11:50:26.234Z</time></trkpt><trkpt lat="43.4708694" lon="11.9692193"><ele>905.0</ele><time>2026-04-19T11:50:27.233Z</time></trkpt><trkpt lat="43.4709317" lon="11.9691251"><ele>905.0</ele><time>2026-04-19T11:50:28.235Z</time></trkpt><trkpt lat="43.4710031" lon="11.9690494"><ele>905.0</ele><time>2026-04-19T11:50:29.233Z</time></trkpt><trkpt lat="43.4710932" lon="11.9689836"><ele>904.0</ele><time>2026-04-19T11:50:30.234Z</time></trkpt><trkpt lat="43.4711909" lon="11.9689131"><ele>903.0</ele><time>2026-04-19T11:50:31.233Z</time></trkpt><trkpt lat="43.4712819" lon="11.9688374"><ele>902.0</ele><time>2026-04-19T11:50:32.234Z</time></trkpt><trkpt lat="43.4713546" lon="11.9687324"><ele>901.0</ele><time>2026-04-19T11:50:33.234Z</time></trkpt><trkpt lat="43.4714085" lon="11.9685953"><ele>900.0</ele><time>2026-04-19T11:50:34.234Z</time></trkpt><trkpt lat="43.4714448" lon="11.9684313"><ele>898.25</ele><time>2026-04-19T11:50:35.235Z</time></trkpt><trkpt lat="43.4714738" lon="11.9682467"><ele>896.5</ele><time>2026-04-19T11:50:36.233Z</time></trkpt><trkpt lat="43.4715081" lon="11.968051"><ele>894.75</ele><time>2026-04-19T11:50:37.233Z</time></trkpt><trkpt lat="43.4715391" lon="11.967856"><ele>893.0</ele><time>2026-04-19T11:50:38.235Z</time></trkpt><trkpt lat="43.4715673" lon="11.9676686"><ele>891.0</ele><time>2026-04-19T11:50:39.234Z</time></trkpt><trkpt lat="43.4715926" lon="11.9674926"><ele>889.0</ele><time>2026-04-19T11:50:40.233Z</time></trkpt><trkpt lat="43.4716142" lon="11.9673247"><ele>887.0</ele><time>2026-04-19T11:50:41.233Z</time></trkpt><trkpt lat="43.4716338" lon="11.9671672"><ele>885.0</ele><time>2026-04-19T11:50:42.234Z</time></trkpt><trkpt lat="43.4716574" lon="11.9670254"><ele>885.0</ele><time>2026-04-19T11:50:43.233Z</time></trkpt><trkpt lat="43.471685" lon="11.9669003"><ele>885.0</ele><time>2026-04-19T11:50:44.233Z</time></trkpt><trkpt lat="43.4717174" lon="11.9667804"><ele>885.0</ele><time>2026-04-19T11:50:45.232Z</time></trkpt><trkpt lat="43.4717525" lon="11.9666584"><ele>885.0</ele><time>2026-04-19T11:50:46.233Z</time></trkpt><trkpt lat="43.4717883" lon="11.9665423"><ele>885.0</ele><time>2026-04-19T11:50:47.233Z</time></trkpt><trkpt lat="43.471829" lon="11.966433"><ele>883.8333333333334</ele><time>2026-04-19T11:50:48.234Z</time></trkpt><trkpt lat="43.4718741" lon="11.9663269"><ele>882.6666666666667</ele><time>2026-04-19T11:50:49.233Z</time></trkpt><trkpt lat="43.4719266" lon="11.9662232"><ele>881.5</ele><time>2026-04-19T11:50:50.234Z</time></trkpt><trkpt lat="43.4719834" lon="11.9661357"><ele>880.3333333333334</ele><time>2026-04-19T11:50:51.233Z</time></trkpt><trkpt lat="43.4720425" lon="11.9660618"><ele>879.1666666666667</ele><time>2026-04-19T11:50:52.233Z</time></trkpt><trkpt lat="43.472103" lon="11.9660056"><ele>878.0</ele><time>2026-04-19T11:50:53.233Z</time></trkpt><trkpt lat="43.472169" lon="11.9659722"><ele>878.0000000000001</ele><time>2026-04-19T11:50:54.233Z</time></trkpt><trkpt lat="43.4722401" lon="11.9659572"><ele>878.0</ele><time>2026-04-19T11:50:55.233Z</time></trkpt><trkpt lat="43.4723057" lon="11.9659621"><ele>878.0</ele><time>2026-04-19T11:50:56.233Z</time></trkpt><trkpt lat="43.4723694" lon="11.9659917"><ele>878.0</ele><time>2026-04-19T11:50:57.234Z</time></trkpt><trkpt lat="43.4724393" lon="11.9660466"><ele>878.0000000000001</ele><time>2026-04-19T11:50:58.234Z</time></trkpt><trkpt lat="43.4725099" lon="11.9661235"><ele>878.0</ele><time>2026-04-19T11:50:59.233Z</time></trkpt><trkpt lat="43.4725833" lon="11.9662242"><ele>878.0</ele><time>2026-04-19T11:51:00.233Z</time></trkpt><trkpt lat="43.4726507" lon="11.9663361"><ele>878.0</ele><time>2026-04-19T11:51:01.234Z</time></trkpt><trkpt lat="43.472715" lon="11.9664733"><ele>878.0</ele><time>2026-04-19T11:51:02.233Z</time></trkpt><trkpt lat="43.4727767" lon="11.9665917"><ele>878.0</ele><time>2026-04-19T11:51:03.234Z</time></trkpt><trkpt lat="43.472845" lon="11.9667"><ele>878.0</ele><time>2026-04-19T11:51:04.234Z</time></trkpt><trkpt lat="43.4729133" lon="11.9668033"><ele>876.75</ele><time>2026-04-19T11:51:05.234Z</time></trkpt><trkpt lat="43.4730017" lon="11.96689"><ele>875.5</ele><time>2026-04-19T11:51:06.234Z</time></trkpt><trkpt lat="43.4731183" lon="11.9669533"><ele>874.25</ele><time>2026-04-19T11:51:07.234Z</time></trkpt><trkpt lat="43.47324" lon="11.967005"><ele>873.0</ele><time>2026-04-19T11:51:08.233Z</time></trkpt><trkpt lat="43.4733667" lon="11.9670333"><ele>873.0</ele><time>2026-04-19T11:51:09.234Z</time></trkpt><trkpt lat="43.4734867" lon="11.9670517"><ele>873.0</ele><time>2026-04-19T11:51:10.234Z</time></trkpt><trkpt lat="43.4736017" lon="11.9670567"><ele>873.0</ele><time>2026-04-19T11:51:11.234Z</time></trkpt><trkpt lat="43.473705" lon="11.967065"><ele>873.0</ele><time>2026-04-19T11:51:12.233Z</time></trkpt><trkpt lat="43.4738067" lon="11.96707"><ele>873.0</ele><time>2026-04-19T11:51:13.234Z</time></trkpt><trkpt lat="43.47391" lon="11.9670733"><ele>871.0</ele><time>2026-04-19T11:51:14.233Z</time></trkpt><trkpt lat="43.4740117" lon="11.9670733"><ele>869.0</ele><time>2026-04-19T11:51:15.234Z</time></trkpt><trkpt lat="43.4741133" lon="11.96706"><ele>867.0</ele><time>2026-04-19T11:51:16.233Z</time></trkpt><trkpt lat="43.47421" lon="11.9670217"><ele>865.0</ele><time>2026-04-19T11:51:17.233Z</time></trkpt><trkpt lat="43.4742883" lon="11.9669667"><ele>863.0</ele><time>2026-04-19T11:51:18.234Z</time></trkpt><trkpt lat="43.4743517" lon="11.9669183"><ele>863.0</ele><time>2026-04-19T11:51:19.233Z</time></trkpt><trkpt lat="43.4744283" lon="11.9668317"><ele>863.0</ele><time>2026-04-19T11:51:21.234Z</time></trkpt><trkpt lat="43.47445" lon="11.966745"><ele>863.0</ele><time>2026-04-19T11:51:24.234Z</time></trkpt></trkseg></trk></gpx>